Time;durP1;ratioP1;P1;durP2;ratioP2;P2;SDS_P1;SDS_P2;PMS_P1;PMS_P2;Temp;Humidity;BMP_temperature;BMP_pressure;BME280_temperature;BME280_humidity;BME280_pressure;Samples;Min_cycle;Max_cycle;Signal;HPM_P1;HPM_P2
2022/07/03 00:00:41;;;;;;;;;;;20.50;90.20;;;;;;4953261;28;19910;-68
2022/07/03 00:03:07;;;;;;;;;;;20.40;90.10;;;;;;4953417;29;20314;-68
2022/07/03 00:05:32;;;;;;;;;;;20.40;90.20;;;;;;4953360;28;19911;-68
2022/07/03 00:07:58;;;;;;;;;;;20.40;90.20;;;;;;4953150;28;19914;-68
2022/07/03 00:10:24;;;;;;;;;;;20.40;90.60;;;;;;4953256;29;20080;-68
2022/07/03 00:12:50;;;;;;;;;;;20.40;90.30;;;;;;4953211;29;19910;-67
2022/07/03 00:15:16;;;;;;;;;;;20.30;90.30;;;;;;4953317;28;20037;-67
2022/07/03 00:17:41;;;;;;;;;;;20.30;90.30;;;;;;4952995;28;20035;-68
2022/07/03 00:20:07;;;;;;;;;;;20.30;90.40;;;;;;4953015;29;19925;-68
2022/07/03 00:22:35;;;;;;;;;;;20.30;90.40;;;;;;4953164;28;19914;-67
2022/07/03 00:25:03;;;;;;;;;;;20.30;90.40;;;;;;4953227;28;19980;-70
2022/07/03 00:27:32;;;;;;;;;;;20.30;90.40;;;;;;4951791;28;19964;-68
2022/07/03 00:29:58;;;;;;;;;;;20.30;90.50;;;;;;4952996;28;19910;-68
2022/07/03 00:32:24;;;;;;;;;;;20.30;90.50;;;;;;4953243;28;20001;-68
2022/07/03 00:34:51;;;;;;;;;;;20.30;90.70;;;;;;4952942;28;19950;-69
2022/07/03 00:37:17;;;;;;;;;;;20.30;90.70;;;;;;4952833;28;20367;-68
2022/07/03 00:39:43;;;;;;;;;;;20.30;90.80;;;;;;4953078;28;20006;-68
2022/07/03 00:42:10;;;;;;;;;;;20.30;90.80;;;;;;4953082;28;20433;-68
2022/07/03 00:45:02;;;;;;;;;;;20.30;90.90;;;;;;4954127;28;19914;-67
2022/07/03 00:47:28;;;;;;;;;;;20.30;91.10;;;;;;4956105;28;19916;-68
2022/07/03 00:49:57;;;;;;;;;;;20.30;91.30;;;;;;4956895;28;19910;-68
2022/07/03 00:52:23;;;;;;;;;;;20.30;91.70;;;;;;4956683;28;19953;-68
2022/07/03 00:54:53;;;;;;;;;;;20.20;92.00;;;;;;4956730;28;19948;-69
2022/07/03 00:57:20;;;;;;;;;;;20.30;92.40;;;;;;4956240;28;19958;-69
2022/07/03 00:59:45;;;;;;;;;;;20.20;92.60;;;;;;4956195;28;20371;-68
2022/07/03 01:02:27;;;;;;;;;;;20.20;92.70;;;;;;4956569;28;19957;-68
2022/07/03 01:04:56;;;;;;;;;;;20.10;92.80;;;;;;4955274;29;19957;-68
2022/07/03 01:07:45;;;;;;;;;;;20.10;93.10;;;;;;4956547;28;19981;-67
2022/07/03 01:10:24;;;;;;;;;;;20.10;93.20;;;;;;4956005;28;20023;-67
2022/07/03 01:13:00;;;;;;;;;;;20.00;93.40;;;;;;4956372;28;19910;-67
2022/07/03 01:15:35;;;;;;;;;;;19.90;93.60;;;;;;4956475;28;20287;-68
2022/07/03 01:18:10;;;;;;;;;;;19.90;94.10;;;;;;4956026;28;19915;-67
2022/07/03 01:20:38;;;;;;;;;;;19.90;94.10;;;;;;4956502;28;19980;-67
2022/07/03 01:23:09;;;;;;;;;;;19.80;94.30;;;;;;4956198;28;19910;-68
2022/07/03 01:25:34;;;;;;;;;;;19.80;94.90;;;;;;4956187;28;19942;-68
2022/07/03 01:28:00;;;;;;;;;;;19.80;94.90;;;;;;4955831;28;20390;-68
2022/07/03 01:30:27;;;;;;;;;;;19.70;95.10;;;;;;4955810;29;20279;-68
2022/07/03 01:32:56;;;;;;;;;;;19.70;95.30;;;;;;4955916;28;19910;-68
2022/07/03 01:35:23;;;;;;;;;;;19.70;95.60;;;;;;4955766;28;19918;-68
2022/07/03 01:37:50;;;;;;;;;;;19.70;95.60;;;;;;4955611;28;20376;-68
2022/07/03 01:40:17;;;;;;;;;;;19.70;95.70;;;;;;4955702;28;20405;-68
2022/07/03 01:42:44;;;;;;;;;;;19.60;95.70;;;;;;4955678;28;20272;-68
2022/07/03 01:45:10;;;;;;;;;;;19.70;95.70;;;;;;4955669;28;19921;-68
2022/07/03 01:47:39;;;;;;;;;;;19.60;95.70;;;;;;4955497;28;20438;-68
2022/07/03 01:50:06;;;;;;;;;;;19.50;95.50;;;;;;4955457;28;20388;-68
2022/07/03 01:52:32;;;;;;;;;;;19.50;95.70;;;;;;4955707;28;19914;-68
2022/07/03 01:55:00;;;;;;;;;;;19.50;95.70;;;;;;4955573;28;19953;-68
2022/07/03 01:57:33;;;;;;;;;;;19.50;95.90;;;;;;4953356;28;20396;-67
2022/07/03 01:59:59;;;;;;;;;;;19.50;95.90;;;;;;4955318;28;19910;-68
2022/07/03 02:02:32;;;;;;;;;;;19.40;95.70;;;;;;4955389;28;20037;-68
2022/07/03 02:05:16;;;;;;;;;;;19.40;95.80;;;;;;4955395;28;19950;-68
2022/07/03 02:07:52;;;;;;;;;;;19.40;95.80;;;;;;4955513;28;19973;-68
2022/07/03 02:10:23;;;;;;;;;;;19.40;95.90;;;;;;4955235;28;19949;-68
2022/07/03 02:12:51;;;;;;;;;;;19.40;95.90;;;;;;4955506;28;19914;-68
2022/07/03 02:15:18;;;;;;;;;;;19.30;96.00;;;;;;4955235;29;19906;-68
2022/07/03 02:17:47;;;;;;;;;;;19.30;96.10;;;;;;4954880;28;19918;-67
2022/07/03 02:20:15;;;;;;;;;;;19.30;96.20;;;;;;4954980;28;19942;-68
2022/07/03 02:22:42;;;;;;;;;;;19.20;96.40;;;;;;4955043;28;20393;-68
2022/07/03 02:25:10;;;;;;;;;;;19.20;96.40;;;;;;4955008;28;19910;-68
2022/07/03 02:27:41;;;;;;;;;;;19.20;96.30;;;;;;4954819;28;19910;-68
2022/07/03 02:30:08;;;;;;;;;;;19.10;96.30;;;;;;4954743;28;19942;-68
2022/07/03 02:32:36;;;;;;;;;;;19.10;96.50;;;;;;4954808;28;19911;-68
2022/07/03 02:35:04;;;;;;;;;;;19.10;96.60;;;;;;4954768;28;19918;-68
2022/07/03 02:37:32;;;;;;;;;;;19.00;96.80;;;;;;4955043;28;20021;-68
2022/07/03 02:40:09;;;;;;;;;;;19.00;97.10;;;;;;4954410;28;19918;-68
2022/07/03 02:42:38;;;;;;;;;;;19.00;97.30;;;;;;4954850;28;19910;-68
2022/07/03 02:45:05;;;;;;;;;;;19.00;97.40;;;;;;4954610;28;20283;-68
2022/07/03 02:47:43;;;;;;;;;;;19.00;97.60;;;;;;4954439;28;19917;-68
2022/07/03 02:50:15;;;;;;;;;;;19.00;97.70;;;;;;4954426;29;19914;-68
2022/07/03 02:52:41;;;;;;;;;;;18.90;97.80;;;;;;4954619;28;19914;-68
2022/07/03 02:55:09;;;;;;;;;;;18.90;98.00;;;;;;4954504;28;20366;-68
2022/07/03 02:57:39;;;;;;;;;;;18.90;98.10;;;;;;4954371;28;19921;-68
2022/07/03 03:00:06;;;;;;;;;;;18.90;98.20;;;;;;4954164;28;19910;-68
2022/07/03 03:02:35;;;;;;;;;;;18.80;98.30;;;;;;4954311;29;19911;-68
2022/07/03 03:05:04;;;;;;;;;;;18.80;98.40;;;;;;4954155;28;20372;-68
2022/07/03 03:07:34;;;;;;;;;;;18.80;98.40;;;;;;4954148;28;19915;-68
2022/07/03 03:10:00;;;;;;;;;;;18.70;98.30;;;;;;4954198;28;19918;-68
2022/07/03 03:12:32;;;;;;;;;;;18.70;98.40;;;;;;4954151;29;19983;-68
2022/07/03 03:15:02;;;;;;;;;;;18.70;98.50;;;;;;4953998;28;20287;-68
2022/07/03 03:17:35;;;;;;;;;;;18.60;98.50;;;;;;4953688;28;19915;-68
2022/07/03 03:20:02;;;;;;;;;;;18.60;98.60;;;;;;4954072;29;19937;-68
2022/07/03 03:22:33;;;;;;;;;;;18.60;98.80;;;;;;4954197;28;19906;-68
2022/07/03 03:25:01;;;;;;;;;;;18.60;98.90;;;;;;4953929;28;20115;-68
2022/07/03 03:27:27;;;;;;;;;;;18.50;98.80;;;;;;4953809;28;19911;-68
2022/07/03 03:29:53;;;;;;;;;;;18.40;98.90;;;;;;4953523;28;19911;-67
2022/07/03 03:32:20;;;;;;;;;;;18.40;99.20;;;;;;4953714;28;19917;-68
2022/07/03 03:34:46;;;;;;;;;;;18.40;99.40;;;;;;4953845;28;19921;-68
2022/07/03 03:37:12;;;;;;;;;;;18.40;99.50;;;;;;4953650;28;20227;-68
2022/07/03 03:39:38;;;;;;;;;;;18.30;99.30;;;;;;4953560;28;19910;-68
2022/07/03 03:42:04;;;;;;;;;;;18.30;99.40;;;;;;4953679;29;19968;-68
2022/07/03 03:44:30;;;;;;;;;;;18.30;99.50;;;;;;4954117;28;19918;-69
2022/07/03 03:46:56;;;;;;;;;;;18.20;99.50;;;;;;4953812;28;20483;-67
2022/07/03 03:49:22;;;;;;;;;;;18.20;99.70;;;;;;4953441;28;19973;-68
2022/07/03 03:51:47;;;;;;;;;;;18.20;99.90;;;;;;4953541;28;19911;-67
2022/07/03 03:54:13;;;;;;;;;;;18.20;99.90;;;;;;4953398;29;20057;-68
2022/07/03 03:56:39;;;;;;;;;;;18.10;99.90;;;;;;4953402;28;19914;-67
2022/07/03 03:59:05;;;;;;;;;;;18.10;99.90;;;;;;4953129;28;19922;-67
2022/07/03 04:01:31;;;;;;;;;;;18.20;99.90;;;;;;4953296;29;20012;-67
2022/07/03 04:03:59;;;;;;;;;;;18.20;99.90;;;;;;4953558;29;19910;-68
2022/07/03 04:06:25;;;;;;;;;;;18.20;99.90;;;;;;4953254;28;19957;-67
2022/07/03 04:08:51;;;;;;;;;;;18.20;99.90;;;;;;4953034;28;20001;-67
2022/07/03 04:11:17;;;;;;;;;;;18.30;99.90;;;;;;4953290;28;20319;-68
2022/07/03 04:13:43;;;;;;;;;;;18.20;99.90;;;;;;4953721;28;20331;-67
2022/07/03 04:16:08;;;;;;;;;;;18.30;99.90;;;;;;4953095;28;19917;-67
2022/07/03 04:18:34;;;;;;;;;;;18.20;99.90;;;;;;4953102;28;19918;-68
2022/07/03 04:21:00;;;;;;;;;;;18.30;99.90;;;;;;4956638;28;19906;-67
2022/07/03 04:23:26;;;;;;;;;;;18.30;99.90;;;;;;4957283;28;19921;-67
2022/07/03 04:25:51;;;;;;;;;;;18.40;99.90;;;;;;4957034;29;19918;-67
2022/07/03 04:28:17;;;;;;;;;;;18.40;99.90;;;;;;4956823;28;19911;-68
2022/07/03 04:30:43;;;;;;;;;;;18.50;99.90;;;;;;4955665;28;19917;-67
2022/07/03 04:33:09;;;;;;;;;;;18.50;99.90;;;;;;4956976;29;19914;-67
2022/07/03 04:35:34;;;;;;;;;;;18.50;99.90;;;;;;4979111;23;20394;-82
2022/07/03 04:38:00;;;;;;;;;;;18.50;99.90;;;;;;4956747;28;19914;-82
2022/07/03 04:40:26;;;;;;;;;;;18.50;99.90;;;;;;4956237;29;20397;-82
2022/07/03 04:42:51;;;;;;;;;;;18.50;99.90;;;;;;4956566;28;19917;-82
2022/07/03 04:45:17;;;;;;;;;;;18.40;99.90;;;;;;4956541;28;20454;-82
2022/07/03 04:47:43;;;;;;;;;;;18.40;99.90;;;;;;4956533;28;19914;-82
2022/07/03 04:50:08;;;;;;;;;;;18.40;99.90;;;;;;4956525;29;19910;-82
2022/07/03 04:52:34;;;;;;;;;;;18.40;99.90;;;;;;4956538;28;20182;-82
2022/07/03 04:55:00;;;;;;;;;;;18.40;99.90;;;;;;4956365;28;19965;-82
2022/07/03 04:57:25;;;;;;;;;;;18.40;99.90;;;;;;4956087;28;19925;-82
2022/07/03 04:59:51;;;;;;;;;;;18.40;99.90;;;;;;4956031;29;19911;-82
2022/07/03 05:02:17;;;;;;;;;;;18.40;99.90;;;;;;4956432;28;19937;-82
2022/07/03 05:04:42;;;;;;;;;;;18.50;99.90;;;;;;4956379;28;19980;-82
2022/07/03 05:07:08;;;;;;;;;;;18.50;99.90;;;;;;4956067;28;19966;-82
2022/07/03 05:09:34;;;;;;;;;;;18.50;99.90;;;;;;4956069;29;20315;-82
2022/07/03 05:11:59;;;;;;;;;;;18.50;99.90;;;;;;4956005;29;19916;-82
2022/07/03 05:14:25;;;;;;;;;;;18.60;99.90;;;;;;4956446;28;19934;-82
2022/07/03 05:16:50;;;;;;;;;;;18.60;99.90;;;;;;4956061;28;20398;-81
2022/07/03 05:19:16;;;;;;;;;;;18.70;99.90;;;;;;4955855;28;20386;-82
2022/07/03 05:21:42;;;;;;;;;;;18.70;99.90;;;;;;4955953;28;19910;-82
2022/07/03 05:24:07;;;;;;;;;;;18.80;99.90;;;;;;4955867;28;19907;-82
2022/07/03 05:26:33;;;;;;;;;;;18.90;99.90;;;;;;4954337;29;19918;-82
2022/07/03 05:28:58;;;;;;;;;;;18.90;99.90;;;;;;4955842;29;19911;-82
2022/07/03 05:31:24;;;;;;;;;;;19.00;99.90;;;;;;4954431;28;19910;-82
2022/07/03 05:33:50;;;;;;;;;;;19.10;99.90;;;;;;4955885;28;20034;-82
2022/07/03 05:36:15;;;;;;;;;;;19.20;99.90;;;;;;4955283;28;19918;-82
2022/07/03 05:41:25;;;;;;;;;;;19.30;99.40;;;;;;4955544;29;19917;-82
2022/07/03 05:43:51;;;;;;;;;;;19.40;98.50;;;;;;4955819;28;19910;-82
2022/07/03 05:46:16;;;;;;;;;;;19.40;98.40;;;;;;4954019;28;20260;-82
2022/07/03 05:48:42;;;;;;;;;;;19.50;97.70;;;;;;4955452;28;19914;-81
2022/07/03 05:51:07;;;;;;;;;;;19.60;97.50;;;;;;4955268;29;19964;-82
2022/07/03 05:53:33;;;;;;;;;;;19.60;96.70;;;;;;4955426;28;19917;-82
2022/07/03 05:55:59;;;;;;;;;;;19.70;96.70;;;;;;4955284;28;19914;-82
2022/07/03 05:58:24;;;;;;;;;;;19.80;96.70;;;;;;4955137;29;19920;-82
2022/07/03 06:00:50;;;;;;;;;;;19.80;96.60;;;;;;4955043;28;20014;-82
2022/07/03 06:03:16;;;;;;;;;;;19.80;96.70;;;;;;4955107;29;19914;-82
2022/07/03 06:05:41;;;;;;;;;;;19.80;96.40;;;;;;4954910;28;19910;-82
2022/07/03 06:08:07;;;;;;;;;;;19.90;96.10;;;;;;4955039;29;20013;-82
2022/07/03 06:10:33;;;;;;;;;;;19.90;95.80;;;;;;4954715;29;20018;-82
2022/07/03 06:12:59;;;;;;;;;;;20.00;95.80;;;;;;4955048;28;19910;-82
2022/07/03 06:15:24;;;;;;;;;;;20.00;95.60;;;;;;4955095;28;19910;-82
2022/07/03 06:17:50;;;;;;;;;;;20.10;95.40;;;;;;4954704;29;20415;-82
2022/07/03 06:20:16;;;;;;;;;;;20.10;95.30;;;;;;4954627;28;20371;-82
2022/07/03 06:22:41;;;;;;;;;;;20.10;94.90;;;;;;4954885;28;20013;-82
2022/07/03 06:25:07;;;;;;;;;;;20.20;95.00;;;;;;4954707;28;20012;-82
2022/07/03 06:27:33;;;;;;;;;;;20.20;95.10;;;;;;4954591;29;19929;-82
2022/07/03 06:29:59;;;;;;;;;;;20.20;94.90;;;;;;4954842;28;19911;-82
2022/07/03 06:32:24;;;;;;;;;;;20.20;94.60;;;;;;4954912;28;20428;-82
2022/07/03 06:34:50;;;;;;;;;;;20.30;94.80;;;;;;4954709;28;20291;-82
2022/07/03 06:37:16;;;;;;;;;;;20.30;94.60;;;;;;4954254;28;19921;-82
2022/07/03 06:39:41;;;;;;;;;;;20.40;94.60;;;;;;4954374;28;19910;-82
2022/07/03 06:42:07;;;;;;;;;;;20.40;94.60;;;;;;4954199;28;20191;-82
2022/07/03 06:44:32;;;;;;;;;;;20.40;94.60;;;;;;4954329;28;19910;-82
2022/07/03 06:46:58;;;;;;;;;;;20.40;94.70;;;;;;4954383;28;20040;-82
2022/07/03 06:49:24;;;;;;;;;;;20.50;94.50;;;;;;4954138;28;20012;-82
2022/07/03 06:51:49;;;;;;;;;;;20.50;94.00;;;;;;4954374;29;20529;-82
2022/07/03 06:54:15;;;;;;;;;;;20.50;94.00;;;;;;4954122;28;19962;-82
2022/07/03 06:56:42;;;;;;;;;;;20.50;94.20;;;;;;4953960;28;19910;-82
2022/07/03 06:59:08;;;;;;;;;;;20.60;93.90;;;;;;4953919;28;19918;-82
2022/07/03 07:01:34;;;;;;;;;;;20.60;93.70;;;;;;4954059;29;19910;-83
2022/07/03 07:03:59;;;;;;;;;;;20.60;93.50;;;;;;4954060;28;19910;-82
2022/07/03 07:06:25;;;;;;;;;;;20.60;93.60;;;;;;4953890;28;19915;-82
2022/07/03 07:08:51;;;;;;;;;;;20.70;93.20;;;;;;4953843;28;19914;-82
2022/07/03 07:11:16;;;;;;;;;;;20.70;92.70;;;;;;4953956;28;19914;-82
2022/07/03 07:13:42;;;;;;;;;;;20.70;92.00;;;;;;4953994;29;19957;-82
2022/07/03 07:16:08;;;;;;;;;;;20.80;91.50;;;;;;4952343;28;20323;-82
2022/07/03 07:18:34;;;;;;;;;;;20.80;91.80;;;;;;4953587;29;19921;-82
2022/07/03 07:20:59;;;;;;;;;;;20.80;91.90;;;;;;4953767;28;19910;-82
2022/07/03 07:23:25;;;;;;;;;;;20.90;92.20;;;;;;4953738;29;19937;-82
2022/07/03 07:25:51;;;;;;;;;;;20.90;92.50;;;;;;4953597;28;19910;-82
2022/07/03 07:28:16;;;;;;;;;;;20.90;92.30;;;;;;4953863;29;19954;-82
2022/07/03 07:30:42;;;;;;;;;;;20.90;92.00;;;;;;4953482;28;19918;-82
2022/07/03 07:33:08;;;;;;;;;;;20.90;92.40;;;;;;4953703;28;19910;-82
2022/07/03 07:35:34;;;;;;;;;;;20.90;92.10;;;;;;4953649;28;20005;-82
2022/07/03 07:37:59;;;;;;;;;;;20.90;92.40;;;;;;4953311;28;19914;-82
2022/07/03 07:40:25;;;;;;;;;;;20.90;92.10;;;;;;4953210;29;20024;-80
2022/07/03 07:42:51;;;;;;;;;;;21.00;92.20;;;;;;4953439;29;19917;-83
2022/07/03 07:45:16;;;;;;;;;;;21.00;91.50;;;;;;4953459;28;20001;-83
2022/07/03 07:47:42;;;;;;;;;;;21.00;91.80;;;;;;4951976;28;19950;-83
2022/07/03 07:50:08;;;;;;;;;;;21.00;91.80;;;;;;4953204;29;19958;-83
2022/07/03 07:52:34;;;;;;;;;;;21.10;91.70;;;;;;4952070;29;20001;-82
2022/07/03 07:54:59;;;;;;;;;;;21.10;91.40;;;;;;4952552;28;19954;-82
2022/07/03 07:57:25;;;;;;;;;;;21.10;91.30;;;;;;4953239;28;19991;-82
2022/07/03 07:59:51;;;;;;;;;;;21.10;91.30;;;;;;4953150;28;20056;-82
2022/07/03 08:07:45;;;;;;;;;;;21.20;91.00;;;;;;4952966;29;20084;-82
2022/07/03 08:10:10;;;;;;;;;;;21.20;91.10;;;;;;4953089;28;19910;-82
2022/07/03 08:12:36;;;;;;;;;;;21.30;91.00;;;;;;4953297;28;19968;-82
2022/07/03 08:15:02;;;;;;;;;;;21.30;90.90;;;;;;4953137;28;20397;-82
2022/07/03 08:17:27;;;;;;;;;;;21.30;90.60;;;;;;4952687;29;19922;-82
2022/07/03 08:19:53;;;;;;;;;;;21.40;90.80;;;;;;4953162;29;19907;-82
2022/07/03 08:22:19;;;;;;;;;;;21.40;90.80;;;;;;4953020;29;19938;-82
2022/07/03 08:24:44;;;;;;;;;;;21.40;90.90;;;;;;4951990;28;19914;-83
2022/07/03 08:27:10;;;;;;;;;;;21.40;90.70;;;;;;4953072;28;20430;-82
2022/07/03 08:29:36;;;;;;;;;;;21.40;90.40;;;;;;4952942;28;19910;-82
2022/07/03 08:32:02;;;;;;;;;;;21.50;90.60;;;;;;4952908;28;19926;-82
2022/07/03 08:34:27;;;;;;;;;;;21.40;90.80;;;;;;4951920;28;19918;-82
2022/07/03 08:36:53;;;;;;;;;;;21.50;90.60;;;;;;4952904;29;19911;-82
2022/07/03 08:39:19;;;;;;;;;;;21.40;90.40;;;;;;4952802;28;19914;-82
2022/07/03 08:41:45;;;;;;;;;;;21.50;90.50;;;;;;4952973;29;19911;-82
2022/07/03 08:44:12;;;;;;;;;;;21.50;90.70;;;;;;4953065;28;20259;-82
2022/07/03 08:46:38;;;;;;;;;;;21.50;90.30;;;;;;4952661;28;19933;-82
2022/07/03 08:49:05;;;;;;;;;;;21.50;90.40;;;;;;4952908;28;20005;-82
2022/07/03 08:51:31;;;;;;;;;;;21.50;90.20;;;;;;4952964;28;20319;-80
2022/07/03 08:53:59;;;;;;;;;;;21.60;90.20;;;;;;4952837;29;19911;-82
2022/07/03 08:56:25;;;;;;;;;;;21.60;90.40;;;;;;4952584;28;19961;-82
2022/07/03 08:58:51;;;;;;;;;;;21.60;90.60;;;;;;4952480;28;19921;-82
2022/07/03 09:01:17;;;;;;;;;;;21.60;90.40;;;;;;4952656;28;19930;-83
2022/07/03 09:03:44;;;;;;;;;;;21.60;90.40;;;;;;4951588;29;19981;-82
2022/07/03 09:06:11;;;;;;;;;;;21.60;90.10;;;;;;4954318;28;20012;-82
2022/07/03 09:08:37;;;;;;;;;;;21.60;90.40;;;;;;4956134;28;20168;-82
2022/07/03 09:11:03;;;;;;;;;;;21.60;90.30;;;;;;4956650;28;19910;-82
2022/07/03 09:13:29;;;;;;;;;;;21.60;90.50;;;;;;4956249;28;20429;-82
2022/07/03 09:15:55;;;;;;;;;;;21.70;90.80;;;;;;4955832;28;19914;-82
2022/07/03 09:18:38;;;;;;;;;;;21.70;90.30;;;;;;4956142;29;19918;-82
2022/07/03 09:21:04;;;;;;;;;;;21.70;90.30;;;;;;4956457;28;20366;-82
2022/07/03 09:23:34;;;;;;;;;;;21.70;90.30;;;;;;4956019;28;19949;-83
2022/07/03 09:26:02;;;;;;;;;;;21.80;90.40;;;;;;4955796;28;19910;-82
2022/07/03 09:28:47;;;;;;;;;;;21.80;90.50;;;;;;4955925;28;20001;-81
2022/07/03 09:31:13;;;;;;;;;;;21.80;90.60;;;;;;4955920;29;19911;-82
2022/07/03 09:33:58;;;;;;;;;;;21.80;90.60;;;;;;4954595;28;19917;-82
2022/07/03 09:36:43;;;;;;;;;;;21.80;90.60;;;;;;4954188;28;20402;-82
2022/07/03 09:39:20;;;;;;;;;;;21.90;90.80;;;;;;4955694;29;19914;-82
2022/07/03 09:41:57;;;;;;;;;;;21.90;90.20;;;;;;4955681;29;19914;-82
2022/07/03 09:44:33;;;;;;;;;;;22.00;90.50;;;;;;4955777;28;19993;-82
2022/07/03 09:47:19;;;;;;;;;;;22.00;90.40;;;;;;4955538;28;20152;-82
2022/07/03 09:49:51;;;;;;;;;;;22.00;90.50;;;;;;4955274;29;19956;-83
2022/07/03 09:52:35;;;;;;;;;;;22.00;90.60;;;;;;4955614;28;19914;-82
2022/07/03 09:55:09;;;;;;;;;;;22.10;90.50;;;;;;4955560;28;19910;-82
2022/07/03 09:57:55;;;;;;;;;;;22.10;90.60;;;;;;4955241;29;19918;-83
2022/07/03 10:00:22;;;;;;;;;;;22.20;90.00;;;;;;4954698;28;19921;-82
2022/07/03 10:02:52;;;;;;;;;;;22.10;90.40;;;;;;4955530;28;20160;-82
2022/07/03 10:05:17;;;;;;;;;;;22.20;90.30;;;;;;4955481;28;19910;-82
2022/07/03 10:07:50;;;;;;;;;;;22.20;90.50;;;;;;4955140;29;19941;-82
2022/07/03 10:10:17;;;;;;;;;;;22.20;90.50;;;;;;4955181;28;19911;-82
2022/07/03 10:12:44;;;;;;;;;;;22.20;90.70;;;;;;4955533;28;19996;-82
2022/07/03 10:15:10;;;;;;;;;;;22.30;90.80;;;;;;4955300;28;19914;-82
2022/07/03 10:17:36;;;;;;;;;;;22.30;90.30;;;;;;4953267;28;20005;-82
2022/07/03 10:20:02;;;;;;;;;;;22.30;90.40;;;;;;4955209;28;20038;-82
2022/07/03 10:22:28;;;;;;;;;;;22.30;89.10;;;;;;4953859;29;19918;-83
2022/07/03 10:24:54;;;;;;;;;;;22.40;89.70;;;;;;4955148;28;20327;-83
2022/07/03 10:27:20;;;;;;;;;;;22.30;88.80;;;;;;4955102;28;19910;-82
2022/07/03 10:29:46;;;;;;;;;;;22.40;89.50;;;;;;4955000;28;19918;-82
2022/07/03 10:32:12;;;;;;;;;;;22.40;89.10;;;;;;4955224;28;19918;-83
2022/07/03 10:34:38;;;;;;;;;;;22.40;88.70;;;;;;4955011;28;19945;-83
2022/07/03 10:37:05;;;;;;;;;;;22.40;88.50;;;;;;4954622;28;19992;-83
2022/07/03 10:39:43;;;;;;;;;;;22.50;87.70;;;;;;4954795;28;20375;-82
2022/07/03 10:45:06;;;;;;;;;;;22.50;88.30;;;;;;4954846;28;20375;-82
2022/07/03 10:47:40;;;;;;;;;;;22.50;88.50;;;;;;4954622;28;19910;-82
2022/07/03 10:50:16;;;;;;;;;;;22.50;88.00;;;;;;4954628;29;20261;-82
2022/07/03 10:52:42;;;;;;;;;;;22.60;88.10;;;;;;4954856;28;19910;-83
2022/07/03 10:55:08;;;;;;;;;;;22.80;87.50;;;;;;4954748;28;20261;-82
2022/07/03 10:57:35;;;;;;;;;;;22.80;87.70;;;;;;4953034;29;20395;-82
2022/07/03 11:00:01;;;;;;;;;;;22.80;87.70;;;;;;4954169;28;19965;-82
2022/07/03 11:02:34;;;;;;;;;;;22.90;86.40;;;;;;4954793;28;19914;-82
2022/07/03 11:05:00;;;;;;;;;;;22.90;86.30;;;;;;4954523;28;19938;-82
2022/07/03 11:07:30;;;;;;;;;;;23.00;85.80;;;;;;4954335;28;19918;-82
2022/07/03 11:10:14;;;;;;;;;;;23.00;86.80;;;;;;4954249;28;19941;-82
2022/07/03 11:12:58;;;;;;;;;;;23.00;86.40;;;;;;4953158;29;20260;-82
2022/07/03 11:15:24;;;;;;;;;;;23.00;85.80;;;;;;4954273;28;19910;-82
2022/07/03 11:18:14;;;;;;;;;;;23.00;86.60;;;;;;4954037;28;19920;-82
2022/07/03 11:20:49;;;;;;;;;;;23.00;85.70;;;;;;4953843;28;19918;-82
2022/07/03 11:23:15;;;;;;;;;;;23.00;86.50;;;;;;4954199;29;19910;-82
2022/07/03 11:25:41;;;;;;;;;;;23.00;87.10;;;;;;4954242;28;20360;-82
2022/07/03 11:28:27;;;;;;;;;;;23.10;84.90;;;;;;4954048;28;19937;-82
2022/07/03 11:31:13;;;;;;;;;;;23.10;84.50;;;;;;4953755;29;19910;-82
2022/07/03 11:33:41;;;;;;;;;;;23.10;84.00;;;;;;4954019;28;19914;-82
2022/07/03 11:36:11;;;;;;;;;;;23.10;84.70;;;;;;4953652;28;19914;-82
2022/07/03 11:38:37;;;;;;;;;;;23.10;85.00;;;;;;4953813;28;19936;-82
2022/07/03 11:41:06;;;;;;;;;;;23.20;85.50;;;;;;4953947;28;19969;-82
2022/07/03 11:43:32;;;;;;;;;;;23.10;85.50;;;;;;4953856;28;19910;-82
2022/07/03 11:45:57;;;;;;;;;;;23.10;84.90;;;;;;4953581;28;20012;-82
2022/07/03 11:48:25;;;;;;;;;;;23.20;82.10;;;;;;4952474;29;19910;-82
2022/07/03 11:50:51;;;;;;;;;;;23.30;82.80;;;;;;4952487;29;20216;-82
2022/07/03 11:53:23;;;;;;;;;;;23.30;83.30;;;;;;4953789;28;20363;-82
2022/07/03 11:56:12;;;;;;;;;;;23.40;83.30;;;;;;4953504;28;19921;-82
2022/07/03 11:58:51;;;;;;;;;;;23.40;83.40;;;;;;4942481;29;19914;-82
2022/07/03 12:01:22;;;;;;;;;;;23.40;83.20;;;;;;4953578;28;19910;-82
2022/07/03 12:03:51;;;;;;;;;;;23.40;84.20;;;;;;4953730;28;19914;-82
2022/07/03 12:06:17;;;;;;;;;;;23.50;83.50;;;;;;4953361;28;19910;-82
2022/07/03 12:08:51;;;;;;;;;;;23.50;83.40;;;;;;4953778;28;19956;-82
2022/07/03 12:11:17;;;;;;;;;;;23.50;82.70;;;;;;4953742;28;19949;-82
2022/07/03 12:13:43;;;;;;;;;;;23.60;82.30;;;;;;4953506;28;20361;-82
2022/07/03 12:16:13;;;;;;;;;;;23.60;82.70;;;;;;4953210;28;19957;-82
2022/07/03 12:18:50;;;;;;;;;;;23.70;83.60;;;;;;4953271;28;19914;-82
2022/07/03 12:21:16;;;;;;;;;;;23.80;80.40;;;;;;4953307;28;19960;-82
2022/07/03 12:23:44;;;;;;;;;;;24.00;80.50;;;;;;4953441;28;19910;-82
2022/07/03 12:26:11;;;;;;;;;;;24.00;80.10;;;;;;4953139;28;19917;-82
2022/07/03 12:28:37;;;;;;;;;;;24.10;78.90;;;;;;4951832;28;19917;-82
2022/07/03 12:31:03;;;;;;;;;;;24.20;79.60;;;;;;4953258;28;19914;-82
2022/07/03 12:33:30;;;;;;;;;;;24.30;78.60;;;;;;4952150;28;20263;-82
2022/07/03 12:36:05;;;;;;;;;;;24.40;77.50;;;;;;4952883;28;19915;-82
2022/07/03 12:38:31;;;;;;;;;;;24.50;77.20;;;;;;4951849;28;19915;-82
2022/07/03 12:41:03;;;;;;;;;;;24.40;77.10;;;;;;4954889;28;20286;-82
2022/07/03 12:43:55;;;;;;;;;;;24.50;78.40;;;;;;4955983;28;19965;-82
2022/07/03 12:46:21;;;;;;;;;;;24.60;77.00;;;;;;4955631;28;19910;-82
2022/07/03 12:48:51;;;;;;;;;;;24.50;77.60;;;;;;4955744;29;19917;-82
2022/07/03 12:51:36;;;;;;;;;;;24.60;76.90;;;;;;4955815;28;19927;-82
2022/07/03 12:54:02;;;;;;;;;;;24.70;77.80;;;;;;4956973;28;20013;-82
2022/07/03 12:56:27;;;;;;;;;;;24.80;76.20;;;;;;4956547;29;19917;-82
2022/07/03 13:01:37;;;;;;;;;;;24.80;75.90;;;;;;4956735;29;19910;-82
2022/07/03 13:04:03;;;;;;;;;;;24.80;75.60;;;;;;4956655;28;19917;-83
2022/07/03 13:06:32;;;;;;;;;;;24.70;75.90;;;;;;4955409;29;19910;-82
2022/07/03 13:09:02;;;;;;;;;;;24.70;75.90;;;;;;4955085;29;19917;-83
2022/07/03 13:11:37;;;;;;;;;;;24.70;76.30;;;;;;4956746;29;20279;-82
2022/07/03 13:14:09;;;;;;;;;;;24.60;76.40;;;;;;4956482;28;20271;-82
2022/07/03 13:16:39;;;;;;;;;;;24.60;76.10;;;;;;4956234;28;19988;-82
2022/07/03 13:19:05;;;;;;;;;;;24.60;76.00;;;;;;4955054;29;19915;-82
2022/07/03 13:21:31;;;;;;;;;;;24.50;75.40;;;;;;4956319;28;20395;-82
2022/07/03 13:23:57;;;;;;;;;;;24.50;75.80;;;;;;4956338;29;19918;-83
2022/07/03 13:26:22;;;;;;;;;;;24.40;75.90;;;;;;4956182;28;19953;-82
2022/07/03 13:28:48;;;;;;;;;;;24.30;76.70;;;;;;4956120;28;19918;-82
2022/07/03 13:31:14;;;;;;;;;;;24.30;76.20;;;;;;4956213;28;19917;-82
2022/07/03 13:33:39;;;;;;;;;;;24.20;77.00;;;;;;4956223;28;19910;-82
2022/07/03 13:36:05;;;;;;;;;;;24.30;76.70;;;;;;4955682;28;19918;-82
2022/07/03 13:38:31;;;;;;;;;;;24.30;76.60;;;;;;4955867;29;19911;-82
2022/07/03 13:40:56;;;;;;;;;;;24.30;77.60;;;;;;4955913;28;19910;-82
2022/07/03 13:43:22;;;;;;;;;;;24.30;77.40;;;;;;4956058;29;19953;-82
2022/07/03 13:45:47;;;;;;;;;;;24.30;77.40;;;;;;4955699;28;19910;-82
2022/07/03 13:48:13;;;;;;;;;;;24.20;76.70;;;;;;4955880;28;19918;-82
2022/07/03 13:50:42;;;;;;;;;;;24.20;76.70;;;;;;4955563;29;19911;-82
2022/07/03 13:53:08;;;;;;;;;;;24.20;76.90;;;;;;4954715;28;19914;-83
2022/07/03 13:55:34;;;;;;;;;;;24.30;77.30;;;;;;4955948;28;20009;-82
2022/07/03 13:58:04;;;;;;;;;;;24.40;77.60;;;;;;4955607;28;19969;-82
2022/07/03 14:00:30;;;;;;;;;;;24.60;76.20;;;;;;4955585;28;19921;-82
2022/07/03 14:02:55;;;;;;;;;;;24.70;75.50;;;;;;4955665;28;19914;-82
2022/07/03 14:05:21;;;;;;;;;;;24.70;75.80;;;;;;4955501;28;20378;-82
2022/07/03 14:07:48;;;;;;;;;;;24.60;76.50;;;;;;4955415;28;19917;-83
2022/07/03 14:10:14;;;;;;;;;;;24.50;76.80;;;;;;4938120;29;20402;-82
2022/07/03 14:12:40;;;;;;;;;;;24.50;76.70;;;;;;4954261;29;20323;-82
2022/07/03 14:15:05;;;;;;;;;;;24.50;77.00;;;;;;4955385;28;19922;-82
2022/07/03 14:17:31;;;;;;;;;;;24.40;77.50;;;;;;4955173;28;19914;-82
2022/07/03 14:19:57;;;;;;;;;;;24.30;78.00;;;;;;4955074;28;20394;-83
2022/07/03 14:22:22;;;;;;;;;;;24.50;77.30;;;;;;4955524;28;19917;-82
2022/07/03 14:24:48;;;;;;;;;;;24.70;76.60;;;;;;4955321;28;20330;-82
2022/07/03 14:32:42;;;;;;;;;;;24.40;77.00;;;;;;4955438;29;20338;-82
2022/07/03 14:35:08;;;;;;;;;;;24.30;76.70;;;;;;4955022;28;19922;-82
2022/07/03 14:37:34;;;;;;;;;;;24.30;76.80;;;;;;4954817;28;19915;-83
2022/07/03 14:39:59;;;;;;;;;;;24.50;76.00;;;;;;4954745;28;19918;-82